createdAt,value
2024-03-16T00:00:30.503Z,94.17
2024-03-16T00:03:00.897Z,93.91
2024-03-16T00:05:29.503Z,93.92
2024-03-16T00:07:57.762Z,93.90
2024-03-16T00:10:26.645Z,93.85
2024-03-16T00:12:55.065Z,93.78
2024-03-16T00:15:23.539Z,93.24
2024-03-16T00:17:51.984Z,93.33
2024-03-16T00:20:20.698Z,93.34
2024-03-16T00:22:49.042Z,92.89
2024-03-16T00:25:16.478Z,92.71
2024-03-16T00:27:44.881Z,92.43
2024-03-16T00:30:13.568Z,92.46
2024-03-16T00:32:42.026Z,92.50
2024-03-16T00:35:11.214Z,92.24
2024-03-16T00:37:39.666Z,92.08
2024-03-16T00:40:09.542Z,92.18
2024-03-16T00:42:37.963Z,91.98
2024-03-16T00:45:06.809Z,91.88
2024-03-16T00:47:35.237Z,91.95
2024-03-16T00:50:03.862Z,91.48
2024-03-16T00:52:32.317Z,91.61
2024-03-16T00:55:00.665Z,91.69
2024-03-16T00:57:29.939Z,91.70
2024-03-16T00:59:58.565Z,91.47
2024-03-16T01:02:26.908Z,91.47
2024-03-16T01:04:55.280Z,91.45
2024-03-16T01:07:23.773Z,91.29
2024-03-16T01:09:52.267Z,91.18
2024-03-16T01:12:20.587Z,91.29
2024-03-16T01:14:49.002Z,91.02
2024-03-16T01:17:17.502Z,91.15
2024-03-16T01:19:46.500Z,91.10
2024-03-16T01:22:15.039Z,91.05
2024-03-16T01:24:43.424Z,91.24
2024-03-16T01:27:11.802Z,91.21
2024-03-16T01:29:40.161Z,91.50
2024-03-16T01:32:09.850Z,91.81
2024-03-16T01:34:38.248Z,91.75
2024-03-16T01:37:06.819Z,92.18
2024-03-16T01:39:35.369Z,92.29
2024-03-16T01:42:04.567Z,92.40
2024-03-16T01:44:32.945Z,92.36
2024-03-16T01:47:01.292Z,92.53
2024-03-16T01:49:30.173Z,92.51
2024-03-16T01:51:58.611Z,92.20
2024-03-16T01:54:27.094Z,92.51
2024-03-16T01:56:55.531Z,92.58
2024-03-16T01:59:24.091Z,92.80
2024-03-16T02:01:52.440Z,92.95
2024-03-16T02:04:20.837Z,90.12
2024-03-16T02:06:50.555Z,89.62
2024-03-16T02:09:20.286Z,89.95
2024-03-16T02:11:51.024Z,90.01
2024-03-16T02:14:19.479Z,90.34
2024-03-16T02:16:49.229Z,89.89
2024-03-16T02:19:17.654Z,89.79
2024-03-16T02:21:45.971Z,89.59
2024-03-16T02:24:14.468Z,89.09
2024-03-16T02:26:43.642Z,89.14
2024-03-16T02:29:12.887Z,88.99
2024-03-16T02:31:41.209Z,88.62
2024-03-16T02:34:09.704Z,88.61
2024-03-16T02:36:38.063Z,88.42
2024-03-16T02:39:06.617Z,88.64
2024-03-16T02:41:34.902Z,88.54
2024-03-16T02:44:03.651Z,88.28
2024-03-16T02:46:31.971Z,88.69
2024-03-16T02:49:00.489Z,88.99
2024-03-16T02:51:28.882Z,88.92
2024-03-16T02:53:57.907Z,89.13
2024-03-16T02:56:26.224Z,89.61
2024-03-16T02:58:54.545Z,90.16
2024-03-16T03:01:23.049Z,89.95
2024-03-16T03:03:51.523Z,89.76
2024-03-16T03:06:19.948Z,89.73
2024-03-16T03:08:49.375Z,89.26
2024-03-16T03:11:17.814Z,89.24
2024-03-16T03:13:48.584Z,89.35
2024-03-16T03:16:20.307Z,89.21
2024-03-16T03:18:48.794Z,89.21
2024-03-16T03:21:17.218Z,89.13
2024-03-16T03:23:45.558Z,89.44
2024-03-16T03:26:13.862Z,89.47
2024-03-16T03:28:41.238Z,89.39
2024-03-16T03:31:09.626Z,89.46
2024-03-16T03:33:38.132Z,89.60
2024-03-16T03:36:06.989Z,90.12
2024-03-16T03:38:34.373Z,90.76
2024-03-16T03:41:02.806Z,90.87
2024-03-16T03:43:31.926Z,90.68
2024-03-16T03:46:00.512Z,90.86
2024-03-16T03:48:42.353Z,90.93
2024-03-16T03:51:11.126Z,91.24
2024-03-16T03:53:39.410Z,91.31
2024-03-16T03:56:07.760Z,91.21
2024-03-16T03:58:36.054Z,90.47
2024-03-16T04:01:04.637Z,90.81
2024-03-16T04:03:33.102Z,90.51
2024-03-16T04:06:01.513Z,90.40
2024-03-16T04:08:29.769Z,90.28
2024-03-16T04:10:58.173Z,89.94
2024-03-16T04:13:26.528Z,89.55
2024-03-16T04:15:54.888Z,89.37
2024-03-16T04:18:23.217Z,89.22
2024-03-16T04:20:51.607Z,88.89
2024-03-16T04:23:19.875Z,89.25
2024-03-16T04:25:48.322Z,89.23
2024-03-16T04:28:17.783Z,89.11
2024-03-16T04:30:46.775Z,89.25
2024-03-16T04:33:16.885Z,89.19
2024-03-16T04:35:46.804Z,89.21
2024-03-16T04:38:15.238Z,89.25
2024-03-16T04:40:43.916Z,89.25
2024-03-16T04:43:12.361Z,89.12
2024-03-16T04:45:40.865Z,89.12
2024-03-16T04:48:09.401Z,89.31
2024-03-16T04:50:38.396Z,88.92
2024-03-16T04:53:06.692Z,88.79
2024-03-16T04:55:36.142Z,88.80
2024-03-16T04:58:05.900Z,88.96
2024-03-16T05:00:34.408Z,89.09
2024-03-16T05:03:02.685Z,89.03
2024-03-16T05:05:31.072Z,88.88
2024-03-16T05:07:59.441Z,88.87
2024-03-16T05:10:28.020Z,88.70
2024-03-16T05:12:56.438Z,88.67
2024-03-16T05:15:24.863Z,88.88
2024-03-16T05:17:53.370Z,88.87
2024-03-16T05:20:22.869Z,89.01
2024-03-16T05:22:51.220Z,89.21
2024-03-16T05:25:19.984Z,89.05
2024-03-16T05:27:48.415Z,89.05
2024-03-16T05:30:16.847Z,89.14
2024-03-16T05:32:45.195Z,88.92
2024-03-16T05:35:14.233Z,89.17
2024-03-16T05:37:42.523Z,89.15
2024-03-16T05:40:12.402Z,89.09
2024-03-16T05:42:40.996Z,88.99
2024-03-16T05:45:09.820Z,89.54
2024-03-16T05:47:38.216Z,89.28
2024-03-16T05:50:07.146Z,89.12
2024-03-16T05:52:36.621Z,89.29
2024-03-16T05:55:05.319Z,89.55
2024-03-16T05:57:33.882Z,89.18
2024-03-16T06:00:02.249Z,89.40
2024-03-16T06:02:40.659Z,89.29
2024-03-16T06:05:10.581Z,89.65
2024-03-16T06:07:38.981Z,89.66
2024-03-16T06:10:10.848Z,89.83
2024-03-16T06:12:39.353Z,89.83
2024-03-16T06:15:08.138Z,89.09
2024-03-16T06:17:36.561Z,90.16
2024-03-16T06:20:06.724Z,89.67
2024-03-16T06:22:35.442Z,89.44
2024-03-16T06:25:04.198Z,89.64
2024-03-16T06:27:32.550Z,90.11
2024-03-16T06:30:01.830Z,89.43
2024-03-16T06:32:35.578Z,89.90
2024-03-16T06:35:05.527Z,90.02
2024-03-16T06:37:33.866Z,89.54
2024-03-16T06:40:02.205Z,90.21
2024-03-16T06:42:30.631Z,90.02
2024-03-16T06:44:59.020Z,90.06
2024-03-16T06:47:28.607Z,89.84
2024-03-16T06:49:56.882Z,90.27
2024-03-16T06:52:26.566Z,90.89
2024-03-16T06:54:54.955Z,90.51
2024-03-16T06:57:23.277Z,90.59
2024-03-16T06:59:51.664Z,91.31
2024-03-16T07:02:20.026Z,90.59
2024-03-16T07:04:48.378Z,91.98
2024-03-16T07:07:16.812Z,90.22
2024-03-16T07:09:45.270Z,90.13
2024-03-16T07:12:13.621Z,90.73
2024-03-16T07:14:41.994Z,91.65
2024-03-16T07:17:10.465Z,91.11
2024-03-16T07:19:38.824Z,91.48
2024-03-16T07:22:07.235Z,91.94
2024-03-16T07:24:35.809Z,91.82
2024-03-16T07:27:04.192Z,91.69
2024-03-16T07:29:32.520Z,91.72
2024-03-16T07:32:00.855Z,91.89
2024-03-16T07:34:29.541Z,91.08
2024-03-16T07:37:00.222Z,91.59
2024-03-16T07:39:28.937Z,91.77
2024-03-16T07:41:57.304Z,92.75
2024-03-16T07:44:25.657Z,93.38
2024-03-16T07:46:53.987Z,92.59
2024-03-16T07:49:22.411Z,93.59
2024-03-16T07:51:50.829Z,92.18
2024-03-16T07:54:19.399Z,94.59
2024-03-16T07:56:49.730Z,93.37
2024-03-16T07:59:20.872Z,94.77
2024-03-16T08:01:49.332Z,94.39
2024-03-16T08:04:18.477Z,95.38
2024-03-16T08:06:49.941Z,96.16
2024-03-16T08:09:18.453Z,93.72
2024-03-16T08:11:47.032Z,95.05
2024-03-16T08:14:15.537Z,93.55
2024-03-16T08:16:43.846Z,94.19
2024-03-16T08:19:12.418Z,93.47
2024-03-16T08:21:40.989Z,94.20
2024-03-16T08:24:09.391Z,94.14
2024-03-16T08:26:37.712Z,95.69
2024-03-16T08:29:06.412Z,95.20
2024-03-16T08:31:35.175Z,95.11
2024-03-16T08:34:03.623Z,95.01
2024-03-16T08:36:32.788Z,94.06
2024-03-16T08:39:04.128Z,94.33
2024-03-16T08:41:32.572Z,96.38
2024-03-16T08:44:00.911Z,98.08
2024-03-16T08:46:30.311Z,95.06
2024-03-16T08:48:58.918Z,95.38
2024-03-16T08:51:27.492Z,95.78
2024-03-16T08:53:55.802Z,96.71
2024-03-16T08:56:27.215Z,96.59
2024-03-16T08:58:55.634Z,96.33
2024-03-16T09:01:24.016Z,96.14
2024-03-16T09:03:52.507Z,96.88
2024-03-16T09:06:20.851Z,97.13
2024-03-16T09:08:49.224Z,96.54
2024-03-16T09:11:17.978Z,96.91
2024-03-16T09:13:47.492Z,98.23
2024-03-16T09:16:16.005Z,96.35
2024-03-16T09:18:44.440Z,98.52
2024-03-16T09:21:12.767Z,98.67
2024-03-16T09:23:41.167Z,99.15
2024-03-16T09:26:09.665Z,97.66
2024-03-16T09:28:38.094Z,98.00
2024-03-16T09:31:11.478Z,97.70
2024-03-16T09:33:39.962Z,99.94
2024-03-16T09:36:08.426Z,99.12
2024-03-16T09:38:37.392Z,99.01
2024-03-16T09:41:05.878Z,97.70
